Time;durP1;ratioP1;P1;durP2;ratioP2;P2;SDS_P1;SDS_P2;PMS_P1;PMS_P2;Temp;Humidity;BMP_temperature;BMP_pressure;BME280_temperature;BME280_humidity;BME280_pressure;Samples;Min_cycle;Max_cycle;Signal;HPM_P1;HPM_P2
2023/02/21 02:15:37;;;;;;;0.10;0.10;;;;;;;-0.34;69.43;99351.00;4974250;28;20818;-75
2023/02/21 02:18:20;;;;;;;2.17;0.10;;;;;;;-0.34;69.30;99351.00;5003320;28;20046;-76
2023/02/21 02:21:14;;;;;;;1.60;0.20;;;;;;;-0.33;69.53;99362.13;5000950;28;20054;-75
2023/02/21 02:24:24;;;;;;;2.20;0.20;;;;;;;-0.34;69.53;99368.97;4991209;28;20046;-75
2023/02/21 02:27:25;;;;;;;0.57;0.10;;;;;;;-0.33;69.66;99360.41;5001551;28;20046;-75
2023/02/21 02:30:27;;;;;;;2.17;0.50;;;;;;;-0.32;69.15;99363.81;4994393;28;20050;-75
2023/02/21 02:33:24;;;;;;;0.55;0.22;;;;;;;-0.36;69.62;99359.53;4957156;28;20097;-75
2023/02/21 02:35:57;;;;;;;0.40;0.20;;;;;;;-0.42;69.60;99365.50;4994621;28;20793;-76
2023/02/21 02:38:31;;;;;;;0.60;0.20;;;;;;;-0.32;69.77;99382.63;5005759;28;20042;-76
2023/02/21 02:41:03;;;;;;;1.35;0.20;;;;;;;-0.31;69.96;99397.19;4993225;28;20050;-76
2023/02/21 02:43:33;;;;;;;1.20;0.20;;;;;;;-0.39;69.78;99378.34;5002401;28;20044;-76
2023/02/21 02:46:08;;;;;;;0.40;0.20;;;;;;;-0.29;69.90;99395.47;4996812;28;20132;-76
2023/02/21 02:48:38;;;;;;;1.97;0.30;;;;;;;-0.29;69.62;99398.03;4995595;28;20506;-76
2023/02/21 02:51:09;;;;;;;1.00;0.20;;;;;;;-0.28;70.00;99399.75;4996208;28;20287;-76
2023/02/21 02:53:36;;;;;;;0.20;0.20;;;;;;;-0.29;69.68;99399.75;4996005;28;20054;-80
2023/02/21 02:56:06;;;;;;;2.75;0.20;;;;;;;-0.24;69.77;99410.88;5003103;28;20450;-76
2023/02/21 02:58:35;;;;;;;0.52;0.30;;;;;;;-0.22;69.83;99413.47;4995565;28;20046;-76
2023/02/21 03:01:16;;;;;;;0.65;0.30;;;;;;;-0.22;70.03;99429.72;5000783;28;20045;-75
2023/02/21 03:03:58;;;;;;;1.67;1.17;;;;;;;-0.19;70.22;99436.56;4998876;28;20065;-76
2023/02/21 03:06:35;;;;;;;0.30;0.20;;;;;;;-0.18;69.72;99446.84;4990389;28;20057;-76
2023/02/21 03:09:12;;;;;;;0.20;0.20;;;;;;;-0.18;69.90;99451.97;4998354;28;20054;-76
2023/02/21 03:11:45;;;;;;;1.98;0.20;;;;;;;-0.16;70.40;99454.56;4995913;28;20502;-76
2023/02/21 03:14:16;;;;;;;0.38;0.20;;;;;;;-0.19;70.06;99445.13;4998847;28;20720;-75
2023/02/21 03:16:48;;;;;;;0.38;0.20;;;;;;;-0.15;70.00;99444.28;5000172;28;20052;-76
2023/02/21 03:19:19;;;;;;;0.55;0.20;;;;;;;-0.12;70.49;99453.69;4992818;28;20174;-75
2023/02/21 03:21:52;;;;;;;2.72;0.20;;;;;;;-0.10;70.58;99454.56;4997865;28;20057;-75
2023/02/21 03:24:20;;;;;;;1.17;0.20;;;;;;;-0.09;69.70;99461.41;4999599;28;20053;-75
2023/02/21 03:26:51;;;;;;;1.40;0.30;;;;;;;-0.08;69.82;99463.13;4997990;28;20049;-75
2023/02/21 03:29:20;;;;;;;0.30;0.20;;;;;;;-0.10;70.05;99475.94;4995125;28;20049;-75
2023/02/21 03:31:52;;;;;;;0.45;0.20;;;;;;;-0.07;70.16;99498.22;4988236;28;20042;-75
2023/02/21 03:34:19;;;;;;;0.25;0.20;;;;;;;-0.06;70.28;99513.63;4990845;28;20070;-75
2023/02/21 03:36:47;;;;;;;0.75;0.20;;;;;;;-0.06;69.90;99515.31;5002374;28;20535;-75
2023/02/21 03:39:14;;;;;;;0.73;0.45;;;;;;;-0.05;70.39;99535.88;4999425;28;20052;-75
2023/02/21 03:41:41;;;;;;;0.28;0.20;;;;;;;-0.03;70.93;99538.44;5007143;28;20060;-76
2023/02/21 03:44:08;;;;;;;0.17;0.17;;;;;;;-0.07;70.22;99529.88;4991972;28;21402;-75
2023/02/21 03:46:35;;;;;;;0.70;0.20;;;;;;;-0.02;70.71;99546.16;5004001;28;20073;-75
2023/02/21 03:49:02;;;;;;;0.30;0.20;;;;;;;-0.02;70.21;99546.16;4999469;28;20046;-75
2023/02/21 03:51:28;;;;;;;0.25;0.20;;;;;;;0.00;70.75;99533.34;5000531;28;20121;-76
2023/02/21 03:53:57;;;;;;;0.70;0.30;;;;;;;0.02;70.51;99541.88;4999248;28;20068;-70
2023/02/21 03:56:23;;;;;;;0.30;0.20;;;;;;;0.04;70.76;99550.47;4984231;28;20048;-70
2023/02/21 03:58:50;;;;;;;0.40;0.20;;;;;;;0.05;70.60;99561.59;4997807;28;20050;-70
2023/02/21 04:01:17;;;;;;;1.00;0.30;;;;;;;0.05;70.74;99569.28;4992512;28;20046;-70
2023/02/21 04:03:44;;;;;;;0.25;0.10;;;;;;;0.06;70.36;99563.28;4985198;28;20065;-70
2023/02/21 04:06:11;;;;;;;0.55;0.20;;;;;;;0.06;70.95;99564.16;4990631;28;20049;-70
2023/02/21 04:08:38;;;;;;;1.05;0.40;;;;;;;0.07;70.52;99576.16;5001473;28;20050;-70
2023/02/21 04:11:06;;;;;;;1.20;0.20;;;;;;;0.08;70.79;99577.84;4989938;28;20066;-70
2023/02/21 04:13:33;;;;;;;2.20;0.15;;;;;;;0.09;70.24;99582.16;5002722;28;20054;-70
2023/02/21 04:16:00;;;;;;;0.30;0.15;;;;;;;0.10;70.82;99589.00;4990999;28;20057;-70
2023/02/21 04:18:26;;;;;;;1.17;0.20;;;;;;;0.11;70.25;99587.28;4995838;28;20046;-70
2023/02/21 04:20:53;;;;;;;0.73;0.20;;;;;;;0.09;70.48;99589.84;4997141;28;20044;-70
2023/02/21 04:23:22;;;;;;;1.55;0.20;;;;;;;0.12;71.03;99602.72;5002365;28;20069;-69
2023/02/21 04:25:49;;;;;;;1.02;0.20;;;;;;;0.12;70.51;99605.28;5000303;28;20049;-70
2023/02/21 04:28:17;;;;;;;0.28;0.28;;;;;;;0.14;71.08;99611.28;4992520;28;20410;-70
2023/02/21 04:30:44;;;;;;;0.22;0.10;;;;;;;0.15;70.35;99630.97;4998424;28;20494;-69
2023/02/21 04:33:11;;;;;;;0.82;0.20;;;;;;;0.15;70.56;99633.53;4994055;28;20061;-70
2023/02/21 04:35:37;;;;;;;0.95;0.22;;;;;;;0.14;70.45;99639.53;5003629;28;20045;-70
2023/02/21 04:38:04;;;;;;;0.77;0.20;;;;;;;0.17;71.12;99647.25;5004375;28;20141;-70
2023/02/21 04:40:31;;;;;;;2.53;0.30;;;;;;;0.18;70.81;99656.66;4996198;28;20050;-70
2023/02/21 04:42:58;;;;;;;0.55;0.25;;;;;;;0.20;70.82;99648.97;5006108;28;20421;-70
2023/02/21 04:45:26;;;;;;;2.70;0.30;;;;;;;0.19;70.29;99660.09;4999318;28;20046;-70
2023/02/21 04:47:53;;;;;;;1.33;0.30;;;;;;;0.22;70.85;99665.22;5001082;28;20147;-71
2023/02/21 04:50:20;;;;;;;0.32;0.20;;;;;;;0.24;70.46;99670.41;4996936;28;20481;-71
2023/02/21 04:52:48;;;;;;;0.63;0.20;;;;;;;0.15;70.62;99656.66;4997760;28;20052;-70
2023/02/21 04:55:15;;;;;;;0.38;0.30;;;;;;;0.21;70.23;99682.34;4987512;28;20050;-70
2023/02/21 04:57:42;;;;;;;0.80;0.30;;;;;;;0.24;70.77;99690.94;4998959;28;20049;-71
2023/02/21 05:00:11;;;;;;;0.20;0.20;;;;;;;0.26;70.61;99704.63;4996907;28;20050;-71
2023/02/21 05:02:42;;;;;;;1.27;0.25;;;;;;;0.24;70.77;99702.06;5001513;28;20517;-71
2023/02/21 05:05:09;;;;;;;0.50;0.25;;;;;;;0.28;71.12;99713.22;4997436;28;20406;-71
2023/02/21 05:07:36;;;;;;;0.47;0.20;;;;;;;0.25;70.67;99719.19;4996784;28;20055;-71
2023/02/21 05:10:04;;;;;;;1.17;0.30;;;;;;;0.28;70.77;99726.06;4993183;28;20054;-71
2023/02/21 05:12:31;;;;;;;0.50;0.30;;;;;;;0.26;70.61;99723.50;4989831;28;20446;-71
2023/02/21 05:14:58;;;;;;;0.28;0.20;;;;;;;0.31;71.07;99731.22;4998808;28;20050;-71
2023/02/21 05:17:26;;;;;;;1.83;0.30;;;;;;;0.31;71.21;99734.63;4990799;28;20041;-71
2023/02/21 05:19:55;;;;;;;2.05;0.30;;;;;;;0.28;70.92;99728.63;4997664;28;20054;-71
2023/02/21 05:22:22;;;;;;;0.40;0.20;;;;;;;0.33;70.90;99747.50;4992416;28;20053;-71
2023/02/21 05:24:49;;;;;;;0.30;0.20;;;;;;;0.29;70.68;99745.78;4994251;28;20039;-70
2023/02/21 05:27:17;;;;;;;0.45;0.20;;;;;;;0.35;70.78;99756.09;4987601;28;20671;-71
2023/02/21 05:29:47;;;;;;;0.73;0.30;;;;;;;0.36;71.16;99762.94;4989881;28;20487;-71
2023/02/21 05:32:14;;;;;;;0.60;0.30;;;;;;;0.33;70.65;99758.63;4992408;28;20053;-71
2023/02/21 05:34:43;;;;;;;0.68;0.38;;;;;;;0.39;71.10;99770.66;4995102;28;20046;-71
2023/02/21 05:37:12;;;;;;;2.25;0.32;;;;;;;0.27;70.16;99750.03;4994392;28;20061;-70
2023/02/21 05:39:39;;;;;;;0.93;0.43;;;;;;;0.40;71.01;99774.97;4991017;28;20038;-71
2023/02/21 05:42:06;;;;;;;0.93;0.55;;;;;;;0.37;70.77;99786.06;4985688;28;20558;-71
2023/02/21 05:44:33;;;;;;;0.40;0.30;;;;;;;0.43;71.04;99798.09;4998780;28;20045;-71
2023/02/21 05:47:01;;;;;;;1.75;0.28;;;;;;;0.43;70.79;99795.53;4988665;28;20049;-71
2023/02/21 05:49:28;;;;;;;2.00;0.47;;;;;;;0.45;70.93;99798.94;4993300;28;20507;-71
2023/02/21 05:51:55;;;;;;;0.40;0.30;;;;;;;0.44;70.62;99805.81;4990043;28;20053;-70
2023/02/21 05:54:23;;;;;;;0.60;0.40;;;;;;;0.45;70.32;99806.66;5000324;28;20056;-71
2023/02/21 05:56:51;;;;;;;0.65;0.38;;;;;;;0.47;71.03;99812.69;4993565;28;20046;-71
2023/02/21 05:59:20;;;;;;;1.45;0.40;;;;;;;0.45;70.70;99810.09;5003634;28;20466;-71
2023/02/21 06:01:47;;;;;;;0.63;0.22;;;;;;;0.48;70.89;99819.53;4998237;28;20046;-70
2023/02/21 06:04:14;;;;;;;1.08;0.35;;;;;;;0.49;70.07;99828.97;4991820;28;20050;-69
2023/02/21 06:06:41;;;;;;;0.45;0.30;;;;;;;0.50;70.38;99830.69;4996153;28;20050;-69
2023/02/21 06:09:09;;;;;;;0.70;0.30;;;;;;;0.50;70.74;99825.53;4997640;28;20056;-70
2023/02/21 06:11:39;;;;;;;1.35;0.38;;;;;;;0.53;70.76;99837.56;4999525;28;20072;-70
2023/02/21 06:14:09;;;;;;;1.08;0.32;;;;;;;0.54;70.56;99835.00;4989928;28;20846;-70
2023/02/21 06:16:37;;;;;;;1.55;0.30;;;;;;;0.55;70.46;99846.16;4993377;28;20523;-69
2023/02/21 06:19:07;;;;;;;0.50;0.35;;;;;;;0.55;70.98;99852.13;4993150;28;20073;-69
2023/02/21 06:21:34;;;;;;;0.88;0.30;;;;;;;0.56;70.89;99858.97;4994052;28;20329;-71
2023/02/21 06:24:01;;;;;;;0.35;0.30;;;;;;;0.53;70.84;99850.41;4990767;28;20112;-71
2023/02/21 06:26:28;;;;;;;0.80;0.30;;;;;;;0.60;70.35;99867.59;4989438;28;20066;-71
2023/02/21 06:28:57;;;;;;;0.50;0.30;;;;;;;0.60;70.10;99871.03;4991827;28;20679;-71
2023/02/21 06:31:24;;;;;;;1.65;0.40;;;;;;;0.60;70.47;99876.16;4987359;28;20494;-71
2023/02/21 06:33:51;;;;;;;2.65;0.47;;;;;;;0.58;70.75;99866.72;4987223;28;20058;-71
2023/02/21 06:36:20;;;;;;;1.27;0.40;;;;;;;0.63;70.94;99876.19;4999350;28;20053;-70
2023/02/21 06:38:49;;;;;;;1.17;0.40;;;;;;;0.64;71.45;99883.03;4993697;28;20046;-71
2023/02/21 06:41:18;;;;;;;1.15;0.40;;;;;;;0.64;71.04;99895.88;4998894;28;20074;-71
2023/02/21 06:43:45;;;;;;;1.60;0.50;;;;;;;0.64;70.83;99903.59;4992089;28;20042;-71
2023/02/21 06:46:18;;;;;;;0.73;0.40;;;;;;;0.65;70.66;99910.47;5001184;28;20046;-71
2023/02/21 06:48:44;;;;;;;1.35;0.45;;;;;;;0.67;70.34;99918.19;4992096;28;20046;-71
2023/02/21 06:51:13;;;;;;;1.02;0.40;;;;;;;0.67;70.63;99929.31;4995707;28;20054;-71
2023/02/21 06:53:40;;;;;;;4.07;0.73;;;;;;;0.67;70.66;99934.47;4991432;28;20050;-71
2023/02/21 06:56:07;;;;;;;0.52;0.40;;;;;;;0.71;71.12;99940.47;4991637;28;20519;-72
2023/02/21 06:58:34;;;;;;;2.95;0.43;;;;;;;0.72;70.91;99946.50;4990410;28;20129;-72
2023/02/21 07:01:01;;;;;;;2.95;0.43;;;;;;;0.74;71.41;99955.06;4988406;28;20687;-71
2023/02/21 07:03:30;;;;;;;1.35;0.40;;;;;;;0.74;71.06;99960.22;4995448;28;20053;-69
2023/02/21 07:05:57;;;;;;;1.00;0.30;;;;;;;0.74;70.27;99971.38;4999873;28;20064;-71
2023/02/21 07:08:25;;;;;;;0.55;0.40;;;;;;;0.75;70.71;99987.66;4989650;28;20053;-71
2023/02/21 07:10:52;;;;;;;2.25;0.50;;;;;;;0.76;71.16;99999.66;4998704;28;20080;-71
2023/02/21 07:13:19;;;;;;;2.20;0.60;;;;;;;0.77;70.47;100007.41;5000007;28;20085;-70
2023/02/21 07:15:46;;;;;;;2.90;0.60;;;;;;;0.78;71.15;100021.09;4994788;28;20045;-71
2023/02/21 07:18:13;;;;;;;1.73;0.60;;;;;;;0.76;70.82;100025.34;5000106;28;20414;-72
2023/02/21 07:20:41;;;;;;;1.27;0.75;;;;;;;0.78;71.02;100033.97;4999435;28;20046;-71
2023/02/21 07:23:08;;;;;;;3.38;0.57;;;;;;;0.82;71.22;100046.84;4999313;28;20061;-71
2023/02/21 07:25:35;;;;;;;1.27;0.60;;;;;;;0.84;71.01;100054.56;4999257;28;20050;-72
2023/02/21 07:28:03;;;;;;;2.00;0.57;;;;;;;0.83;70.92;100064.00;4998790;28;20514;-72
2023/02/21 07:30:30;;;;;;;2.55;0.90;;;;;;;0.81;71.64;100064.84;4991324;28;20129;-73
2023/02/21 07:32:58;;;;;;;5.15;1.00;;;;;;;0.77;71.52;100063.94;5001158;28;20847;-72
2023/02/21 07:35:24;;;;;;;2.70;1.77;;;;;;;0.85;71.31;100087.13;4993382;28;20553;-71
2023/02/21 07:37:53;;;;;;;2.55;1.17;;;;;;;0.86;71.81;100099.16;5001151;28;20054;-70
2023/02/21 07:40:20;;;;;;;2.15;1.13;;;;;;;0.86;71.70;100109.44;4999273;28;20042;-70
2023/02/21 07:42:47;;;;;;;1.63;0.50;;;;;;;0.88;71.08;100123.16;4999412;28;20043;-72
2023/02/21 07:45:16;;;;;;;2.13;0.60;;;;;;;0.87;71.52;100127.44;4995008;28;20049;-73
2023/02/21 07:47:44;;;;;;;2.75;0.98;;;;;;;0.90;71.44;100134.34;4991787;28;20069;-71
2023/02/21 07:50:12;;;;;;;2.78;0.77;;;;;;;0.92;71.28;100148.09;4989523;28;20053;-71
2023/02/21 07:52:39;;;;;;;1.75;0.63;;;;;;;0.94;71.50;100158.38;4997033;28;20502;-71
2023/02/21 07:55:07;;;;;;;1.42;0.70;;;;;;;0.95;71.20;100168.69;4991427;28;20049;-71
2023/02/21 07:57:34;;;;;;;7.85;1.55;;;;;;;0.93;71.68;100170.38;5002205;28;20056;-70
2023/02/21 08:00:01;;;;;;;1.75;0.82;;;;;;;0.97;72.26;100187.56;4999892;28;20141;-72
2023/02/21 08:02:28;;;;;;;3.20;1.10;;;;;;;0.97;71.81;100192.72;4992659;28;20042;-71
2023/02/21 08:04:55;;;;;;;2.70;0.90;;;;;;;0.84;72.33;100176.28;4998681;28;20064;-72
2023/02/21 08:07:22;;;;;;;2.15;0.85;;;;;;;0.97;71.73;100208.16;4995619;28;20121;-71
2023/02/21 08:09:49;;;;;;;3.42;1.27;;;;;;;1.00;72.08;100218.47;5001944;28;20046;-73
2023/02/21 08:12:17;;;;;;;1.50;0.80;;;;;;;1.01;71.58;100222.75;5002515;28;20078;-72
2023/02/21 08:14:44;;;;;;;2.83;1.27;;;;;;;1.00;71.18;100228.75;4985912;28;20046;-72
2023/02/21 08:17:12;;;;;;;2.60;1.00;;;;;;;1.04;71.77;100240.78;5004402;28;20397;-72
2023/02/21 08:19:39;;;;;;;3.00;1.27;;;;;;;1.05;72.01;100244.22;4990259;28;20112;-71
2023/02/21 08:22:06;;;;;;;3.08;1.42;;;;;;;1.03;72.60;100251.94;4994556;28;20054;-70
2023/02/21 08:24:33;;;;;;;3.38;1.10;;;;;;;1.01;71.87;100255.31;4993097;28;20085;-71
2023/02/21 08:27:00;;;;;;;3.75;1.15;;;;;;;1.05;72.50;100270.84;5001667;28;20932;-71
2023/02/21 08:29:28;;;;;;;3.40;1.10;;;;;;;1.07;71.97;100271.69;5000069;28;20046;-72
2023/02/21 08:31:55;;;;;;;1.08;0.73;;;;;;;1.08;71.85;100281.16;4994194;28;20046;-71
2023/02/21 08:34:23;;;;;;;2.90;1.20;;;;;;;1.10;72.00;100287.16;4991309;28;20042;-72
2023/02/21 08:36:50;;;;;;;1.70;0.73;;;;;;;1.12;71.80;100293.19;5003320;28;20157;-70
2023/02/21 08:39:17;;;;;;;3.83;0.95;;;;;;;1.13;72.16;100301.75;4995835;28;20481;-69
2023/02/21 08:41:45;;;;;;;3.45;1.08;;;;;;;1.13;71.55;100310.34;5004218;28;20046;-70
2023/02/21 08:44:15;;;;;;;2.17;1.50;;;;;;;1.13;71.96;100310.34;5004313;28;20046;-70
2023/02/21 08:46:44;;;;;;;1.63;1.15;;;;;;;1.15;71.85;100320.66;4998326;28;20038;-70
2023/02/21 08:49:11;;;;;;;3.42;1.55;;;;;;;1.16;71.99;100327.53;4996270;28;20046;-70
2023/02/21 08:51:38;;;;;;;4.40;1.00;;;;;;;1.19;72.61;100343.00;5000709;28;20121;-71
2023/02/21 08:54:06;;;;;;;1.67;0.95;;;;;;;1.19;71.65;100343.00;4999779;28;20422;-71
2023/02/21 08:56:34;;;;;;;2.85;1.20;;;;;;;1.22;71.86;100350.75;4993098;28;20105;-69
2023/02/21 08:59:02;;;;;;;1.85;1.00;;;;;;;1.25;71.86;100360.22;5003382;28;20483;-70
2023/02/21 09:01:32;;;;;;;3.72;1.40;;;;;;;1.26;71.52;100367.13;4994675;28;20443;-70
2023/02/21 09:04:01;;;;;;;2.88;1.10;;;;;;;1.27;71.84;100369.69;4989375;28;20042;-70
2023/02/21 09:06:28;;;;;;;4.28;0.95;;;;;;;1.29;71.85;100378.31;5001477;28;20058;-73
2023/02/21 09:08:55;;;;;;;2.17;0.70;;;;;;;1.29;71.69;100385.16;4990339;28;20050;-71
2023/02/21 09:11:21;;;;;;;3.65;1.00;;;;;;;1.30;72.05;100395.47;4994125;28;20061;-70
2023/02/21 09:13:48;;;;;;;3.97;1.20;;;;;;;1.31;71.96;100401.50;5001706;28;20056;-72
2023/02/21 09:16:15;;;;;;;1.60;1.10;;;;;;;1.32;72.24;100409.22;4994622;28;20057;-72
2023/02/21 09:18:42;;;;;;;2.35;1.45;;;;;;;1.35;72.51;100424.69;5003571;28;20054;-72
2023/02/21 09:21:10;;;;;;;3.90;1.55;;;;;;;1.38;72.17;100428.16;4989386;28;20055;-73
2023/02/21 09:23:37;;;;;;;2.97;1.40;;;;;;;1.37;72.30;100424.72;4998330;28;20050;-73
2023/02/21 09:26:04;;;;;;;3.88;1.13;;;;;;;1.40;71.04;100437.63;4991777;28;20426;-72
2023/02/21 09:28:31;;;;;;;2.42;1.33;;;;;;;1.42;71.60;100446.22;5006528;28;20050;-73
2023/02/21 09:30:58;;;;;;;3.85;2.05;;;;;;;1.44;71.48;100457.41;4990399;28;20046;-73
2023/02/21 09:33:25;;;;;;;2.22;0.70;;;;;;;1.29;70.96;100445.22;5000605;28;20050;-73
2023/02/21 09:35:52;;;;;;;3.28;1.27;;;;;;;1.40;70.93;100467.66;4991984;28;20129;-73
2023/02/21 09:38:21;;;;;;;2.85;1.23;;;;;;;1.40;71.66;100475.38;4999125;28;20081;-72
2023/02/21 09:40:52;;;;;;;3.40;1.27;;;;;;;1.44;71.31;100483.16;4993779;28;20056;-73
2023/02/21 09:43:25;;;;;;;3.78;1.83;;;;;;;1.46;71.22;100489.19;4999834;28;20046;-74
2023/02/21 09:45:58;;;;;;;3.50;1.80;;;;;;;1.48;71.23;100492.66;5000105;28;20045;-74
2023/02/21 09:48:26;;;;;;;2.88;1.60;;;;;;;1.49;70.99;100499.53;4993517;28;21034;-74
2023/02/21 09:50:58;;;;;;;4.30;2.05;;;;;;;1.51;71.18;100508.16;5000225;28;20437;-72
2023/02/21 09:53:29;;;;;;;4.50;1.77;;;;;;;1.45;71.20;100502.91;4991416;28;20054;-73
2023/02/21 09:55:59;;;;;;;4.30;1.70;;;;;;;1.50;70.78;100518.41;4994135;28;20057;-74
2023/02/21 09:58:27;;;;;;;3.17;1.45;;;;;;;1.51;70.73;100528.75;4986345;28;20043;-71
2023/02/21 10:00:58;;;;;;;2.25;1.15;;;;;;;1.53;70.49;100534.75;4986249;28;20043;-73
2023/02/21 10:03:45;;;;;;;2.85;1.48;;;;;;;1.54;70.25;100546.81;4996404;28;20053;-77
2023/02/21 10:06:23;;;;;;;5.60;1.67;;;;;;;1.52;70.59;100555.34;5003128;28;20546;-78
2023/02/21 10:08:58;;;;;;;2.33;1.23;;;;;;;1.51;70.91;100551.91;5001032;28;20113;-80
2023/02/21 10:11:37;;;;;;;2.65;1.10;;;;;;;1.52;70.66;100560.50;5006924;28;20060;-83
2023/02/21 10:14:17;;;;;;;2.70;1.20;;;;;;;1.51;70.45;100569.06;4995349;28;20041;-77
2023/02/21 10:16:51;;;;;;;3.85;1.58;;;;;;;1.49;69.79;100579.31;4999742;28;20048;-78
2023/02/21 10:19:24;;;;;;;2.38;1.48;;;;;;;1.45;70.01;100590.44;4992199;28;20099;-79
2023/02/21 10:21:57;;;;;;;1.67;0.98;;;;;;;1.42;70.23;100590.34;5003268;28;20073;-76
2023/02/21 10:24:27;;;;;;;1.65;1.13;;;;;;;1.30;69.67;100574.72;4997881;28;20073;-82
2023/02/21 10:27:01;;;;;;;4.13;1.38;;;;;;;1.44;69.93;100603.25;5006706;28;20129;-80
2023/02/21 10:29:40;;;;;;;2.60;1.20;;;;;;;1.41;69.99;100604.06;5002686;28;20039;-79
2023/02/21 10:32:08;;;;;;;1.77;0.93;;;;;;;1.41;69.74;100614.38;4998525;28;20050;-79
2023/02/21 10:34:35;;;;;;;2.75;1.30;;;;;;;1.41;69.56;100621.22;5003995;28;20049;-84
2023/02/21 10:37:13;;;;;;;1.98;1.33;;;;;;;1.42;69.61;100628.09;5004949;28;20042;-71
2023/02/21 10:39:46;;;;;;;3.55;0.93;;;;;;;1.44;70.02;100629.84;4991946;28;20045;-71
2023/02/21 10:42:27;;;;;;;3.65;1.67;;;;;;;1.46;69.60;100641.06;4996125;28;20665;-71
2023/02/21 10:44:56;;;;;;;3.10;1.42;;;;;;;1.47;69.64;100644.50;4995539;28;20058;-73
2023/02/21 10:47:29;;;;;;;3.75;1.35;;;;;;;1.49;69.84;100653.97;5002902;28;20052;-72
2023/02/21 10:50:01;;;;;;;2.40;1.30;;;;;;;1.47;70.06;100660.78;4990789;28;20061;-73
2023/02/21 10:52:28;;;;;;;3.17;1.17;;;;;;;1.51;69.81;100672.03;4999842;28;20569;-73
2023/02/21 10:55:07;;;;;;;2.85;1.00;;;;;;;1.51;69.68;100682.31;4989424;28;20058;-71
2023/02/21 10:57:41;;;;;;;2.30;1.00;;;;;;;1.47;69.33;100677.94;4988504;28;20050;-70
2023/02/21 11:00:09;;;;;;;1.65;1.05;;;;;;;1.38;69.44;100668.38;4996338;28;20505;-71
2023/02/21 11:02:39;;;;;;;2.03;1.02;;;;;;;1.56;69.66;100701.28;4999950;28;20049;-71
2023/02/21 11:05:14;;;;;;;2.42;1.25;;;;;;;1.56;69.39;100707.28;4994809;28;20502;-70
2023/02/21 11:07:42;;;;;;;2.53;1.30;;;;;;;1.56;69.55;100706.41;4999888;28;20436;-70
2023/02/21 11:10:30;;;;;;;2.75;1.08;;;;;;;1.60;69.40;100713.38;4987810;28;20426;-70
2023/02/21 11:13:13;;;;;;;3.50;1.70;;;;;;;1.60;69.56;100720.22;4999824;28;20057;-70
2023/02/21 11:15:40;;;;;;;1.80;1.00;;;;;;;1.61;69.27;100730.53;4999417;28;20564;-70
2023/02/21 11:18:14;;;;;;;1.88;1.17;;;;;;;1.58;69.54;100736.50;4987596;28;20047;-71
2023/02/21 11:20:41;;;;;;;2.35;1.10;;;;;;;1.54;69.00;100737.31;4996608;28;20069;-71
2023/02/21 11:23:20;;;;;;;2.75;1.40;;;;;;;1.63;68.52;100753.75;4993285;28;20053;-70
2023/02/21 11:25:49;;;;;;;3.10;1.00;;;;;;;1.62;69.66;100762.31;4985747;28;20889;-70
2023/02/21 11:28:20;;;;;;;3.72;1.50;;;;;;;1.63;68.76;100770.06;5001619;28;20104;-70
2023/02/21 11:30:50;;;;;;;2.53;1.17;;;;;;;1.63;68.86;100775.22;5001792;28;20049;-70
2023/02/21 11:33:21;;;;;;;2.70;1.55;;;;;;;1.66;68.43;100789.84;4992949;28;20111;-70
2023/02/21 11:35:53;;;;;;;1.83;0.95;;;;;;;1.66;69.60;100793.28;4996727;28;20045;-70
2023/02/21 11:38:35;;;;;;;2.63;1.85;;;;;;;1.65;69.31;100800.97;4987412;28;20057;-70
2023/02/21 11:41:16;;;;;;;4.18;1.48;;;;;;;1.65;69.19;100806.13;4992886;28;20502;-70
2023/02/21 11:43:46;;;;;;;2.45;1.17;;;;;;;1.65;69.37;100813.84;5003581;28;20047;-70
2023/02/21 11:46:18;;;;;;;0.95;0.50;;;;;;;1.65;69.18;100816.41;5002954;28;20065;-70
2023/02/21 11:48:55;;;;;;;1.35;0.82;;;;;;;1.64;69.31;100820.72;4992361;28;20053;-70
2023/02/21 11:51:32;;;;;;;2.08;0.90;;;;;;;1.60;68.58;100830.94;5002338;28;20042;-72
2023/02/21 11:53:59;;;;;;;5.78;1.15;;;;;;;1.66;69.12;100843.94;5002411;28;20134;-71
2023/02/21 11:56:37;;;;;;;3.90;0.77;;;;;;;1.62;69.10;100849.84;4993876;28;20048;-71
2023/02/21 11:59:16;;;;;;;2.25;1.38;;;;;;;1.61;68.75;100851.56;5000153;28;20050;-71
2023/02/21 12:01:53;;;;;;;2.95;0.80;;;;;;;1.63;68.62;100873.06;5001156;28;20042;-71
2023/02/21 12:04:35;;;;;;;1.67;0.95;;;;;;;1.63;68.57;100872.19;5002564;28;20410;-71
2023/02/21 12:07:12;;;;;;;2.63;1.20;;;;;;;1.61;68.32;100887.59;4997255;28;20427;-69
2023/02/21 12:09:45;;;;;;;3.58;1.85;;;;;;;1.55;68.14;100883.19;4989423;28;20085;-69
2023/02/21 12:12:31;;;;;;;1.73;1.05;;;;;;;1.62;68.77;100888.47;5001326;28;20058;-70
2023/02/21 12:15:12;;;;;;;2.97;0.82;;;;;;;1.62;69.08;100891.91;5000923;28;20384;-69
2023/02/21 12:17:57;;;;;;;3.92;1.17;;;;;;;1.47;69.17;100876.16;4991543;28;20042;-70
2023/02/21 12:20:33;;;;;;;;;;;;;;;1.62;68.62;100904.78;5004697;28;20423;-69
2023/02/21 12:23:12;;;;;;;4.18;1.60;;;;;;;1.63;68.44;100916.84;5001183;28;19926;-69
2023/02/21 12:25:53;;;;;;;3.47;1.20;;;;;;;1.60;69.25;100921.91;4999393;28;20060;-69
2023/02/21 12:28:33;;;;;;;3.08;1.75;;;;;;;1.64;68.43;100931.44;5000815;28;20046;-70
2023/02/21 12:31:19;;;;;;;2.90;1.60;;;;;;;1.65;68.44;100937.44;4996424;28;20377;-69
2023/02/21 12:33:57;;;;;;;2.90;1.23;;;;;;;1.62;68.05;100933.09;4999276;28;20054;-71
2023/02/21 12:36:44;;;;;;;2.88;1.20;;;;;;;1.65;68.45;100945.16;5003253;28;20057;-70
2023/02/21 12:39:26;;;;;;;3.88;1.25;;;;;;;1.63;68.82;100952.00;4995302;28;20054;-70
2023/02/21 12:42:10;;;;;;;2.58;1.40;;;;;;;1.61;68.77;100951.09;4999383;28;20092;-72
2023/02/21 12:44:49;;;;;;;2.47;1.23;;;;;;;1.63;68.86;100959.75;4996138;28;20047;-70
2023/02/21 12:47:21;;;;;;;3.17;1.80;;;;;;;1.62;68.02;100973.44;5002206;28;20046;-70
2023/02/21 12:49:54;;;;;;;2.30;1.10;;;;;;;1.56;68.28;100969.88;4999091;28;20159;-69
2023/02/21 12:52:27;;;;;;;2.38;1.02;;;;;;;1.60;68.27;100985.44;4996044;28;20426;-70
2023/02/21 12:55:03;;;;;;;4.07;1.70;;;;;;;1.61;68.05;101000.03;4989732;28;20522;-69
2023/02/21 12:57:34;;;;;;;;;;;;;;;1.60;68.45;101011.16;5002517;28;20049;-70
2023/02/21 13:00:16;;;;;;;2.00;1.17;;;;;;;1.57;68.19;101007.69;4999173;28;19932;-70
2023/02/21 13:02:52;;;;;;;3.22;1.42;;;;;;;1.56;68.29;101012.78;4998420;28;20046;-70
2023/02/21 13:05:22;;;;;;;1.63;1.17;;;;;;;1.56;68.37;101016.22;5000316;28;20410;-79
2023/02/21 13:07:55;;;;;;;2.65;1.70;;;;;;;1.47;68.05;101004.88;5003958;28;20046;-78
2023/02/21 13:10:26;;;;;;;2.55;0.98;;;;;;;1.53;68.21;101026.47;5009161;28;20493;-78
2023/02/21 13:12:59;;;;;;;3.17;0.90;;;;;;;1.54;67.63;101035.09;4998520;28;20038;-79
2023/02/21 13:15:29;;;;;;;1.35;0.82;;;;;;;1.51;67.96;101037.59;5002048;28;20917;-79
2023/02/21 13:18:00;;;;;;;2.85;0.93;;;;;;;1.51;68.43;101043.59;5008149;28;20049;-80
2023/02/21 13:20:34;;;;;;;2.92;1.00;;;;;;;1.51;68.30;101048.75;5006722;28;20042;-75
2023/02/21 13:26:22;;;;;;;3.22;0.90;;;;;;;1.21;68.33;101010.28;4992947;28;20120;-76
2023/02/21 13:28:53;;;;;;;2.27;1.13;;;;;;;1.49;66.97;101068.44;4999253;28;20057;-77
2023/02/21 13:31:24;;;;;;;2.15;1.00;;;;;;;1.46;67.31;101075.22;5005926;28;20486;-74
2023/02/21 13:33:53;;;;;;;2.75;1.02;;;;;;;1.43;67.61;101076.00;5002923;28;20076;-73
2023/02/21 13:36:28;;;;;;;3.33;1.25;;;;;;;1.42;67.17;101092.28;4999760;28;20049;-77
2023/02/21 13:39:04;;;;;;;3.58;1.52;;;;;;;1.38;67.66;101090.47;4997162;28;20046;-77
2023/02/21 13:41:35;;;;;;;2.35;1.38;;;;;;;1.37;67.78;101095.56;5001621;28;20057;-76
2023/02/21 13:44:07;;;;;;;3.33;0.80;;;;;;;1.33;67.58;101092.94;5001469;28;20042;-75
2023/02/21 13:47:04;;;;;;;2.88;1.00;;;;;;;1.34;67.90;101111.84;4996184;28;20454;-73
2023/02/21 13:49:53;;;;;;;2.53;1.17;;;;;;;1.29;66.86;101110.84;4996070;28;20047;-79
2023/02/21 13:52:52;;;;;;;2.28;1.02;;;;;;;1.31;67.52;101127.22;4999161;28;20073;-76
2023/02/21 13:55:30;;;;;;;1.35;0.70;;;;;;;1.29;67.03;101128.88;5001960;28;20542;-70
2023/02/21 13:58:45;;;;;;;1.48;0.70;;;;;;;1.28;66.79;101127.09;4984550;28;20052;-70
2023/02/21 14:01:21;;;;;;;1.40;0.60;;;;;;;1.24;66.59;101131.31;4990860;28;20046;-73
2023/02/21 14:03:52;;;;;;;1.50;0.63;;;;;;;1.20;66.03;101141.50;4993077;28;20596;-74
2023/02/21 14:06:40;;;;;;;1.17;0.90;;;;;;;1.18;66.42;101140.59;4995049;28;20060;-72
2023/02/21 14:09:13;;;;;;;1.52;0.70;;;;;;;1.16;66.70;101142.25;4990784;28;20050;-71
2023/02/21 14:11:48;;;;;;;0.98;0.70;;;;;;;1.14;65.74;101144.78;4988911;28;20406;-72
2023/02/21 14:14:20;;;;;;;;;;;;;;;1.12;66.31;101152.44;4998387;28;20064;-72